Flight Track Log - Related Links

Times and Time Zones

All times are in EDT time to prevent confusion due to time zone crossing. See the EJA727 flight status page for this flight to view local times or setup timezone preferences in your user account.

Time Position Orientation Groundspeed Altitude Reporting Facility
EDT Latitude Longitude Course Direction KTS MPH feet Rate Location/Type
Mon 03:55:00 PM 40.8167 -74.1667 285° West 231 266 2,600  Level New TRACON
Mon 03:56:00 PM 40.8333 -74.2500 285° West 253 291 7,500 3,895 Climbing New TRACON
Mon 03:56:54 PM 40.8667 -74.3167 303° West 296 341 10,000 1,327 Climbing New TRACON
Mon 03:57:53 PM 40.9392 -74.4025 318° Northwest 341 392 10,000 1,311 Level New Center
Mon 03:58:53 PM 40.9928 -74.4850 311° West 341 392 12,600 3,174 Climbing New Center
Mon 03:59:54 PM 41.0606 -74.5822 313° West 348 400 16,400 3,885 Climbing New Center
Mon 04:00:55 PM 41.1281 -74.6797 313° West 363 418 20,500 2,635 Climbing New Center
Mon 04:02:00 PM 41.1760 -74.7927 323° Northwest  Level FlightAware
Mon 04:06:53 PM 41.4606 -75.4492 296° West 422 486 34,800  Level New Center
Mon 04:07:54 PM 41.5069 -75.5936 293° West 427 491 36,700 1,289 Climbing New Center
Mon 04:09:00 PM 41.4939 -75.5636 300° West  Level FlightAware
Mon 04:09:00 PM 41.5461 -75.7245 290° West  Level FlightAware
Mon 04:10:00 PM 41.5339 -75.6798 290° West  Level FlightAware
Mon 04:10:55 PM 41.6358 -76.0361 289° West 432 497 40,000  Level New Center
Mon 04:11:00 PM 41.5667 -75.8006 270° West  Level FlightAware
Mon 04:11:54 PM 41.6786 -76.1950 290° West 442 509 40,000  Level New Center
Mon 04:12:00 PM 41.5926 -75.9211 296° West  Level FlightAware
Mon 04:12:55 PM 41.7233 -76.3542 291° West 452 520 40,000  Level New Center
Mon 04:13:55 PM 41.7711 -76.5306 290° West 459 528 40,000  Level New Center
Mon 04:14:55 PM 41.8156 -76.6875 291° West 452 520 40,000  Level New Center
Mon 04:15:53 PM 41.8594 -76.8503 290° West 452 520 40,000  Level New Center
Mon 04:16:00 PM 41.7787 -76.5646 289° West  Level FlightAware
Mon 04:17:51 PM 41.9422 -77.1578 290° West 456 525 40,000  Level Cleveland Center
Mon 04:18:48 PM 41.9842 -77.3064 291° West 461 531 40,000  Level Cleveland Center
Mon 04:19:49 PM 42.0261 -77.4692 289° West 461 531 40,000  Level Cleveland Center
Mon 04:20:50 PM 42.0700 -77.6292 290° West 461 531 40,000  Level Cleveland Center
Mon 04:21:51 PM 42.1139 -77.7922 290° West 461 531 40,000  Level Cleveland Center
Mon 04:22:48 PM 42.1572 -77.9531 290° West 461 531 40,000  Level Cleveland Center
Mon 04:23:50 PM 42.1961 -78.1167 288° West 461 531 40,000  Level Cleveland Center
Mon 04:25:00 PM 42.2322 -78.2600 289° West  Level FlightAware
Mon 04:25:51 PM 42.2819 -78.4419 289° West 461 531 40,000  Level Cleveland Center
Mon 04:27:50 PM 42.3669 -78.7733 289° West 466 536 40,000  Level Cleveland Center
Mon 04:28:51 PM 42.4069 -78.9381 288° West 466 536 40,000  Level Cleveland Center
Mon 04:29:48 PM 42.4486 -79.1031 289° West 466 536 40,000  Level Cleveland Center
Mon 04:30:49 PM 42.4883 -79.2739 288° West 466 536 40,000  Level Cleveland Center
Mon 04:33:00 PM 42.5019 -79.5580 274° West  Level FlightAware
Mon 04:33:50 PM 42.5222 -79.8142 274° West 466 536 40,000  Level Cleveland Center
Mon 04:34:51 PM 42.5253 -79.9917 271° West 466 536 40,000  Level Cleveland Center
Mon 04:35:48 PM 42.5344 -80.1661 274° West 476 548 40,000  Level Cleveland Center
Mon 04:36:50 PM 42.5392 -80.3408 272° West 476 548 40,000  Level Cleveland Center
Mon 04:37:50 PM 42.5456 -80.5183 273° West 476 548 40,000  Level Cleveland Center
Mon 04:39:49 PM 42.5600 -80.8736 273° West 471 542 40,000  Level Cleveland Center
Mon 04:40:50 PM 42.5656 -81.0483 273° West 476 548 40,000  Level Cleveland Center
Mon 04:41:48 PM 42.5731 -81.2064 274° West 481 554 40,000  Level Cleveland Center
Mon 04:43:00 PM 42.5674 -81.3944 268° West  Level FlightAware
Mon 04:43:49 PM 42.6019 -81.5619 268° West 472 543 40,000  Level Cleveland Center
Mon 04:44:50 PM 42.6336 -81.7317 284° West 472 543 40,000 -429 Level Cleveland Center
Mon 04:46:00 PM 42.6559 -81.9119 280° West  Level FlightAware
Mon 04:46:51 PM 42.6961 -82.1031 280° West 472 543 38,700  Level Cleveland Center
Mon 04:47:48 PM 42.7269 -82.2789 283° West 477 549 38,000 -356 Descending Cleveland Center
Mon 04:48:49 PM 42.7575 -82.4581 283° West 477 549 38,000  Level Cleveland Center
Mon 04:49:49 PM 42.7878 -82.6400 283° West 482 555 38,000  Level Cleveland Center
Mon 04:50:50 PM 42.8178 -82.8164 283° West 488 562 38,000  Level Cleveland Center
Mon 04:51:50 PM 42.8475 -82.9958 283° West 488 562 38,000  Level Cleveland Center
Mon 04:52:51 PM 42.8750 -83.1756 282° West 488 562 38,000  Level Cleveland Center
Mon 04:53:49 PM 42.9061 -83.3583 283° West 488 562 38,000  Level Cleveland Center
Mon 04:54:00 PM 42.9056 -83.3522 283° West  Level FlightAware
Mon 04:54:49 PM 42.9331 -83.5353 282° West 488 562 38,000  Level Cleveland Center
Mon 04:56:50 PM 42.9378 -83.8931 271° West 478 550 35,800 -1,425 Descending Cleveland Center
Mon 04:58:49 PM 42.8647 -84.2489 254° West 488 562 32,300 -1,827 Descending Cleveland Center
Mon 05:00:53 PM 42.7928 -84.5958 254° West 479 551 28,400 -1,387 Descending Chicago Center
Mon 05:01:55 PM 42.7556 -84.7769 254° West 491 565 28,000 -129 Descending Chicago Center
Mon 05:03:00 PM 42.7125 -84.9375 255° West  Level FlightAware
Mon 05:03:59 PM 42.6764 -85.1442 255° West 505 581 28,000  Level Chicago Center
Mon 05:05:01 PM 42.6289 -85.3644 254° West 506 582 28,000 -48 Level Chicago Center
Mon 05:06:03 PM 42.5892 -85.5489 254° West 508 585 27,900 -935 Descending Chicago Center
Mon 05:08:07 PM 42.5097 -85.9111 254° West 496 571 25,100 -1,387 Descending Chicago Center
Mon 05:09:09 PM 42.4714 -86.0853 253° West 485 558 23,600 -1,452 Descending Chicago Center
Mon 05:10:11 PM 42.4575 -86.2553 264° West 456 525 22,100 -2,226 Descending Chicago Center
Mon 05:11:13 PM 42.4494 -86.4147 266° West 428 493 19,000 -3,264 Descending Chicago Center
Mon 05:12:16 PM 42.4394 -86.5936 266° West 403 464 15,300 -3,216 Descending Chicago Center
Mon 05:13:18 PM 42.4333 -86.7344 267° West 379 436 12,300 -2,565 Descending Chicago Center
Mon 05:14:20 PM 42.4253 -86.8719 266° West 370 426 10,000 -2,032 Descending Chicago Center
Mon 05:15:22 PM 42.4183 -86.9844 265° West 314 361 8,100 -1,742 Descending Chicago Center
Mon 05:16:24 PM 42.4103 -87.0908 264° West 294 338 6,400 -1,667 Descending Chicago Center
Mon 05:18:22 PM 42.4000 -87.3000 266° West 278 320 3,100 -823 Descending Chicago TRACON
Mon 05:20:32 PM 42.3489 -87.5139 252° West 275 316 3,000 -31 Descending Chicago Center
Mon 05:21:34 PM 42.3314 -87.6106 256° West 270 311 3,000  Level Chicago Center
Mon 05:23:29 PM 42.3000 -87.8167 258° West 269 310 3,000  Level Chicago TRACON
Mon 05:24:29 PM 42.2500 -87.8833 225° Southwest 218 251 3,000 -313 Level Chicago TRACON
Mon 05:25:43 PM 42.1964 -87.9497 223° Southwest 231 266 2,300 -568 Descending Chicago Center
Mon 05:27:00 PM 42.1143 -87.9015 169° South  Level Estimated

Login

Don't have an account? Register now (free) for customized features, flight alerts, and more!